createdAt,value
2023-10-03T00:00:00.795Z,6.60
2023-10-03T00:02:32.763Z,5.38
2023-10-03T00:05:04.600Z,8.20
2023-10-03T00:07:36.403Z,5.82
2023-10-03T00:10:07.915Z,6.50
2023-10-03T00:12:39.944Z,6.00
2023-10-03T00:15:11.478Z,5.87
2023-10-03T00:17:43.453Z,11.93
2023-10-03T00:20:15.060Z,5.70
2023-10-03T00:22:46.598Z,7.97
2023-10-03T00:25:18.118Z,6.15
2023-10-03T00:27:49.612Z,6.47
2023-10-03T00:30:21.122Z,10.43
2023-10-03T00:32:53.082Z,4.55
2023-10-03T00:35:24.838Z,5.70
2023-10-03T00:37:56.337Z,5.63
2023-10-03T00:40:27.869Z,5.18
2023-10-03T00:42:59.437Z,5.15
2023-10-03T00:45:31.350Z,2.70
2023-10-03T00:48:02.917Z,8.95
2023-10-03T00:50:35.036Z,10.25
2023-10-03T00:53:06.550Z,5.43
2023-10-03T00:55:38.562Z,5.25
2023-10-03T00:58:10.048Z,8.80
2023-10-03T01:00:41.645Z,3.90
2023-10-03T01:03:13.599Z,5.30
2023-10-03T01:05:45.250Z,4.57
2023-10-03T01:08:17.131Z,8.88
2023-10-03T01:10:48.637Z,4.22
2023-10-03T01:13:20.669Z,7.07
2023-10-03T01:15:52.149Z,7.77
2023-10-03T01:18:24.220Z,6.45
2023-10-03T01:20:55.931Z,4.57
2023-10-03T01:23:27.880Z,4.32
2023-10-03T01:25:59.406Z,6.90
2023-10-03T01:28:31.240Z,3.75
2023-10-03T01:31:02.818Z,5.78
2023-10-03T01:33:34.497Z,6.15
2023-10-03T01:36:06.332Z,3.97
2023-10-03T01:38:38.188Z,9.25
2023-10-03T01:41:09.723Z,5.45
2023-10-03T01:43:41.216Z,3.15
2023-10-03T01:46:13.207Z,3.25
2023-10-03T01:48:44.731Z,5.43
2023-10-03T01:51:16.559Z,4.95
2023-10-03T01:53:48.106Z,5.75
2023-10-03T01:56:19.911Z,7.22
2023-10-03T01:58:51.442Z,5.25
2023-10-03T02:01:23.467Z,17.55
2023-10-03T02:03:55.404Z,4.77
2023-10-03T02:06:27.291Z,4.60
2023-10-03T02:08:59.222Z,5.38
2023-10-03T02:11:30.896Z,9.32
2023-10-03T02:14:02.843Z,8.48
2023-10-03T02:16:34.371Z,6.65
2023-10-03T02:19:05.885Z,4.43
2023-10-03T02:21:37.379Z,11.50
2023-10-03T02:24:08.909Z,4.15
2023-10-03T02:26:40.477Z,6.55
2023-10-03T02:29:12.412Z,5.80
2023-10-03T02:31:43.942Z,9.48
2023-10-03T02:34:15.678Z,7.68
2023-10-03T02:36:47.164Z,2.88
2023-10-03T02:39:18.941Z,9.15
2023-10-03T02:41:50.482Z,4.65
2023-10-03T02:44:22.020Z,4.50
2023-10-03T02:46:53.841Z,6.63
2023-10-03T02:49:25.356Z,6.30
2023-10-03T02:51:58.354Z,7.05
2023-10-03T02:54:29.843Z,3.20
2023-10-03T02:57:01.660Z,12.80
2023-10-03T02:59:33.233Z,6.72
2023-10-03T03:02:04.941Z,11.02
2023-10-03T03:04:36.457Z,6.28
2023-10-03T03:07:08.212Z,7.00
2023-10-03T03:09:39.707Z,6.28
2023-10-03T03:12:11.537Z,8.50
2023-10-03T03:14:43.629Z,7.65
2023-10-03T03:17:15.388Z,8.50
2023-10-03T03:19:47.167Z,8.60
2023-10-03T03:22:18.666Z,4.35
2023-10-03T03:24:50.184Z,5.47
2023-10-03T03:27:21.707Z,8.57
2023-10-03T03:29:53.796Z,5.72
2023-10-03T03:32:25.420Z,6.33
2023-10-03T03:34:57.345Z,6.80
2023-10-03T03:37:28.827Z,11.50
2023-10-03T03:40:00.625Z,5.60
2023-10-03T03:42:32.548Z,9.43
2023-10-03T03:45:04.266Z,8.30
2023-10-03T03:47:36.163Z,5.38
2023-10-03T03:50:07.768Z,11.30
2023-10-03T03:52:39.484Z,4.82
2023-10-03T03:55:10.976Z,7.45
2023-10-03T03:57:42.725Z,5.75
2023-10-03T04:00:14.210Z,7.75
2023-10-03T04:02:45.878Z,8.07
2023-10-03T04:05:17.434Z,9.88
2023-10-03T04:07:48.941Z,13.60
2023-10-03T04:10:20.728Z,6.53
2023-10-03T04:12:52.253Z,11.15
2023-10-03T04:15:24.081Z,5.13
2023-10-03T04:17:55.652Z,10.25
2023-10-03T04:20:27.254Z,8.52
2023-10-03T04:22:58.749Z,9.00
2023-10-03T04:25:30.837Z,8.20
2023-10-03T04:28:02.322Z,8.97
2023-10-03T04:30:34.022Z,8.65
2023-10-03T04:33:05.565Z,6.93
2023-10-03T04:35:37.493Z,9.88
2023-10-03T04:38:09.024Z,7.32
2023-10-03T04:40:40.799Z,12.15
2023-10-03T04:43:12.652Z,5.53
2023-10-03T04:45:44.174Z,10.57
2023-10-03T04:48:16.110Z,9.30
2023-10-03T04:50:47.724Z,7.95
2023-10-03T04:53:19.394Z,7.28
2023-10-03T04:55:50.917Z,11.25
2023-10-03T04:58:22.713Z,9.65
2023-10-03T05:00:54.236Z,9.70
2023-10-03T05:03:26.596Z,9.32
2023-10-03T05:05:58.199Z,7.82
2023-10-03T05:08:30.170Z,8.15
2023-10-03T05:11:01.747Z,9.65
2023-10-03T05:13:33.630Z,6.85
2023-10-03T05:16:05.295Z,10.82
2023-10-03T05:18:37.385Z,12.52
2023-10-03T05:21:09.282Z,8.77
2023-10-03T05:23:40.850Z,8.77
2023-10-03T05:26:12.663Z,8.90
2023-10-03T05:28:44.166Z,7.32
2023-10-03T05:31:16.013Z,13.35
2023-10-03T05:33:47.555Z,11.05
2023-10-03T05:36:19.376Z,10.07
2023-10-03T05:38:50.903Z,8.05
2023-10-03T05:41:22.885Z,11.88
2023-10-03T05:43:55.753Z,9.88
2023-10-03T05:46:27.481Z,11.43
2023-10-03T05:48:58.978Z,8.38
2023-10-03T05:51:30.470Z,7.22
2023-10-03T05:54:02.508Z,16.20
2023-10-03T05:56:34.046Z,14.40
2023-10-03T05:59:05.587Z,9.35
2023-10-03T06:01:37.107Z,7.38
2023-10-03T06:04:08.873Z,14.63
2023-10-03T06:06:40.452Z,11.10
2023-10-03T06:09:12.281Z,9.18
2023-10-03T06:11:43.854Z,10.77
2023-10-03T06:14:15.691Z,12.52
2023-10-03T06:16:47.202Z,7.93
2023-10-03T06:19:18.703Z,10.57
2023-10-03T06:21:50.366Z,9.85
2023-10-03T06:24:21.900Z,10.93
2023-10-03T06:26:53.813Z,11.80
2023-10-03T06:29:25.387Z,8.88
2023-10-03T06:31:57.267Z,10.05
2023-10-03T06:34:28.820Z,7.40
2023-10-03T06:37:00.631Z,9.77
2023-10-03T06:39:32.134Z,13.43
2023-10-03T06:42:04.068Z,9.77
2023-10-03T06:44:35.661Z,14.67
2023-10-03T06:47:07.550Z,9.32
2023-10-03T06:49:39.082Z,8.73
2023-10-03T06:52:10.862Z,10.10
2023-10-03T06:54:42.681Z,9.25
2023-10-03T06:57:14.244Z,14.57
2023-10-03T06:59:45.900Z,13.93
2023-10-03T07:02:17.405Z,11.38
2023-10-03T07:04:48.948Z,14.55
2023-10-03T07:07:20.460Z,13.38
2023-10-03T07:09:52.461Z,15.23
2023-10-03T07:12:24.023Z,12.67
2023-10-03T07:14:55.678Z,13.18
2023-10-03T07:17:27.317Z,19.08
2023-10-03T07:19:58.871Z,16.02
2023-10-03T07:22:30.374Z,10.88
2023-10-03T07:25:01.883Z,9.90
2023-10-03T07:27:33.589Z,17.00
2023-10-03T07:30:05.149Z,10.73
2023-10-03T07:32:36.802Z,12.80
2023-10-03T07:35:08.339Z,9.10
2023-10-03T07:37:39.825Z,13.90
2023-10-03T07:40:11.339Z,12.10
2023-10-03T07:42:43.172Z,16.77
2023-10-03T07:45:14.678Z,14.13
2023-10-03T07:47:46.304Z,19.30
2023-10-03T07:50:17.883Z,15.38
2023-10-03T07:52:50.295Z,14.80
2023-10-03T07:55:23.686Z,15.02
2023-10-03T07:57:55.164Z,13.70
2023-10-03T08:00:26.662Z,15.02
2023-10-03T08:02:58.457Z,15.25
2023-10-03T08:05:30.224Z,17.42
2023-10-03T08:08:01.753Z,18.70
2023-10-03T08:10:33.264Z,14.02
2023-10-03T08:13:04.753Z,9.95
2023-10-03T08:15:36.552Z,13.13
2023-10-03T08:18:08.210Z,18.20
2023-10-03T08:20:39.807Z,13.98
2023-10-03T08:23:11.324Z,14.00
2023-10-03T08:25:45.081Z,16.48
2023-10-03T08:28:17.330Z,21.13
2023-10-03T08:30:48.882Z,14.68
2023-10-03T08:33:20.537Z,13.48
2023-10-03T08:35:52.093Z,14.65
2023-10-03T08:38:23.923Z,12.85
2023-10-03T08:40:55.410Z,14.30
2023-10-03T08:43:27.797Z,16.30
2023-10-03T08:45:59.553Z,14.77
2023-10-03T08:48:31.350Z,13.00
2023-10-03T08:51:03.096Z,14.50
2023-10-03T08:53:35.008Z,13.93
2023-10-03T08:56:06.777Z,9.63
2023-10-03T08:58:38.297Z,11.10
2023-10-03T09:01:10.224Z,11.80
2023-10-03T09:03:41.811Z,10.85
2023-10-03T09:06:13.760Z,11.90
2023-10-03T09:08:45.291Z,11.87
2023-10-03T09:11:17.154Z,12.70
2023-10-03T09:13:48.655Z,17.50
2023-10-03T09:16:20.513Z,15.00
2023-10-03T09:18:52.133Z,17.70
2023-10-03T09:21:24.136Z,10.45
2023-10-03T09:23:56.265Z,17.67
2023-10-03T09:26:27.790Z,12.23
2023-10-03T09:28:59.652Z,18.25
2023-10-03T09:31:31.220Z,10.80
2023-10-03T09:34:03.073Z,13.95
2023-10-03T09:36:34.553Z,13.30
2023-10-03T09:39:06.246Z,12.55
2023-10-03T09:41:37.793Z,18.93
2023-10-03T09:44:09.723Z,12.73
2023-10-03T09:46:41.219Z,18.67
2023-10-03T09:49:13.051Z,16.90
2023-10-03T09:51:44.545Z,17.67
2023-10-03T09:54:16.347Z,16.17
2023-10-03T09:56:47.872Z,15.93
2023-10-03T09:59:19.402Z,12.65
2023-10-03T10:01:50.959Z,10.95
2023-10-03T10:04:22.594Z,9.38
2023-10-03T10:06:54.588Z,9.45
2023-10-03T10:09:26.101Z,11.93
2023-10-03T10:11:58.033Z,15.00
2023-10-03T10:14:29.613Z,15.60
2023-10-03T10:17:01.686Z,11.98
2023-10-03T10:19:33.223Z,11.75
2023-10-03T10:22:05.058Z,11.63
2023-10-03T10:24:36.752Z,14.25
2023-10-03T10:27:08.628Z,11.25
2023-10-03T10:29:40.254Z,10.65
2023-10-03T10:32:11.804Z,18.20
2023-10-03T10:34:43.614Z,11.85
2023-10-03T10:37:15.118Z,11.48
2023-10-03T10:39:46.618Z,15.52
2023-10-03T10:42:18.125Z,11.70
2023-10-03T10:44:49.750Z,12.18
2023-10-03T10:47:21.246Z,16.27
2023-10-03T10:50:02.714Z,12.32
2023-10-03T10:52:44.664Z,10.48
2023-10-03T10:55:16.149Z,11.35
2023-10-03T10:57:47.631Z,12.10
2023-10-03T11:00:19.193Z,13.55
2023-10-03T11:02:50.801Z,10.85
2023-10-03T11:05:22.346Z,13.07
2023-10-03T11:07:54.192Z,12.05
2023-10-03T11:10:34.688Z,7.97
2023-10-03T11:13:07.609Z,11.77
2023-10-03T11:15:39.270Z,16.33
2023-10-03T11:18:11.235Z,7.83
2023-10-03T11:20:43.153Z,12.15
2023-10-03T11:23:14.661Z,8.35
2023-10-03T11:25:46.173Z,7.63
2023-10-03T11:28:17.714Z,14.75
2023-10-03T11:30:49.591Z,12.00
2023-10-03T11:33:21.521Z,10.88
2023-10-03T11:35:53.170Z,9.60
2023-10-03T11:38:25.016Z,9.90
2023-10-03T11:40:56.507Z,7.00
2023-10-03T11:43:28.318Z,16.55
2023-10-03T11:45:59.974Z,6.53
2023-10-03T11:48:31.947Z,7.77
2023-10-03T11:51:03.565Z,16.60
2023-10-03T11:53:35.414Z,12.18
2023-10-03T11:56:06.914Z,9.40
2023-10-03T11:58:38.772Z,13.23
2023-10-03T12:01:10.305Z,11.75
2023-10-03T12:03:42.199Z,9.95
2023-10-03T12:06:13.873Z,12.10
2023-10-03T12:08:45.463Z,11.45
2023-10-03T12:11:17.033Z,9.57
2023-10-03T12:13:48.791Z,8.48
2023-10-03T12:16:20.291Z,7.73
2023-10-03T12:18:52.157Z,10.60
2023-10-03T12:21:23.771Z,9.77
2023-10-03T12:23:55.652Z,9.70
2023-10-03T12:26:28.174Z,12.68
2023-10-03T12:31:31.734Z,7.85
2023-10-03T12:34:03.586Z,10.48
2023-10-03T12:36:35.102Z,5.32
2023-10-03T12:39:07.133Z,10.02
2023-10-03T12:41:38.747Z,14.43
2023-10-03T12:44:10.641Z,9.27
2023-10-03T12:46:42.173Z,7.38
2023-10-03T12:49:13.987Z,9.77
2023-10-03T12:51:45.520Z,6.73
2023-10-03T12:54:17.324Z,7.75
2023-10-03T12:56:48.887Z,7.55
2023-10-03T12:59:20.853Z,11.50
2023-10-03T13:01:52.359Z,14.85
2023-10-03T13:04:24.158Z,6.82
2023-10-03T13:06:55.709Z,13.00
2023-10-03T13:09:27.518Z,7.40
2023-10-03T13:11:59.086Z,7.60
2023-10-03T13:14:30.877Z,10.07
2023-10-03T13:17:02.364Z,8.07
2023-10-03T13:19:34.102Z,5.32
2023-10-03T13:22:05.599Z,5.53
2023-10-03T13:24:37.554Z,5.88
2023-10-03T13:27:09.323Z,12.32
2023-10-03T13:29:41.200Z,7.45
2023-10-03T13:32:12.726Z,8.55
2023-10-03T13:34:44.270Z,9.93
2023-10-03T13:37:15.791Z,6.10
2023-10-03T13:39:47.457Z,7.30
2023-10-03T13:42:19.010Z,10.60
2023-10-03T13:44:50.744Z,5.93
2023-10-03T13:47:22.259Z,4.90
2023-10-03T13:49:53.929Z,9.88
2023-10-03T13:52:25.435Z,9.98
2023-10-03T13:54:57.142Z,6.00
2023-10-03T13:57:28.644Z,6.13
2023-10-03T14:00:00.334Z,5.65
2023-10-03T14:02:31.909Z,15.73
2023-10-03T14:05:03.590Z,5.07
2023-10-03T14:07:35.088Z,11.45
2023-10-03T14:10:06.785Z,12.63
2023-10-03T14:12:38.404Z,3.40
2023-10-03T14:15:10.165Z,3.22
2023-10-03T14:17:41.831Z,4.78
2023-10-03T14:20:13.864Z,6.17
2023-10-03T14:22:45.461Z,5.35
2023-10-03T14:25:17.249Z,3.85
2023-10-03T14:27:48.797Z,4.47
2023-10-03T14:30:20.648Z,4.30
2023-10-03T14:32:52.361Z,4.47
2023-10-03T14:35:24.166Z,6.35
2023-10-03T14:37:55.672Z,3.63
2023-10-03T14:40:27.228Z,4.13
2023-10-03T14:42:58.735Z,7.70
2023-10-03T14:45:30.452Z,4.75
2023-10-03T14:48:02.039Z,2.85
2023-10-03T14:50:33.642Z,4.70
2023-10-03T14:53:05.212Z,4.50
2023-10-03T14:55:37.056Z,3.75
2023-10-03T14:58:08.570Z,4.93
2023-10-03T15:00:40.357Z,3.92
2023-10-03T15:03:11.961Z,6.40
2023-10-03T15:05:43.921Z,6.40
2023-10-03T15:08:15.435Z,7.57
2023-10-03T15:10:46.974Z,5.10
2023-10-03T15:13:18.509Z,2.83
2023-10-03T15:15:50.293Z,1.92
2023-10-03T15:18:21.887Z,7.37
2023-10-03T15:20:53.987Z,3.08
2023-10-03T15:23:25.498Z,4.20
2023-10-03T15:25:57.298Z,5.20
2023-10-03T15:28:28.798Z,5.53
2023-10-03T15:31:00.585Z,3.83
2023-10-03T15:33:32.228Z,3.07
2023-10-03T15:36:04.111Z,4.25
2023-10-03T15:38:35.616Z,3.70
2023-10-03T15:41:07.641Z,5.57
2023-10-03T15:43:39.150Z,3.58
2023-10-03T15:46:10.931Z,2.47
2023-10-03T15:48:42.576Z,2.70
2023-10-03T15:51:14.455Z,6.75
2023-10-03T15:53:46.935Z,9.13
2023-10-03T15:56:18.927Z,3.67
2023-10-03T15:58:50.424Z,6.05
2023-10-03T16:01:22.184Z,6.00
2023-10-03T16:03:53.832Z,5.95
2023-10-03T16:06:25.905Z,1.42
2023-10-03T16:08:57.441Z,2.20
2023-10-03T16:11:29.347Z,4.30
2023-10-03T16:14:00.913Z,2.75
2023-10-03T16:16:32.958Z,5.03
2023-10-03T16:19:04.648Z,1.60
2023-10-03T16:21:36.682Z,3.42
2023-10-03T16:24:08.246Z,2.17
2023-10-03T16:26:40.140Z,6.70
2023-10-03T16:29:11.650Z,3.38
2023-10-03T16:31:43.500Z,4.47
2023-10-03T16:34:15.024Z,2.10
2023-10-03T16:36:46.561Z,3.53
2023-10-03T16:39:18.140Z,4.03
2023-10-03T16:41:49.815Z,2.03
2023-10-03T16:44:21.388Z,4.00
2023-10-03T16:46:53.111Z,1.83
2023-10-03T16:49:24.678Z,1.50
2023-10-03T16:51:56.799Z,0.70
2023-10-03T16:54:28.319Z,2.28
2023-10-03T16:57:00.230Z,0.77
2023-10-03T16:59:31.763Z,1.38
2023-10-03T17:02:03.782Z,1.67
2023-10-03T17:04:35.300Z,1.70
2023-10-03T17:07:07.010Z,1.35
2023-10-03T17:09:38.545Z,3.65
2023-10-03T17:12:10.416Z,2.13
2023-10-03T17:14:41.954Z,1.63
2023-10-03T17:17:13.810Z,1.35
2023-10-03T17:19:45.324Z,2.22
2023-10-03T17:22:17.161Z,1.88
2023-10-03T17:24:48.686Z,2.95
2023-10-03T17:27:20.530Z,1.48
2023-10-03T17:29:52.055Z,2.53
2023-10-03T17:32:23.887Z,0.95
2023-10-03T17:34:55.387Z,0.82
2023-10-03T17:37:27.209Z,3.50
2023-10-03T17:39:58.764Z,2.88
2023-10-03T17:42:30.518Z,1.38
2023-10-03T17:45:02.058Z,0.43
2023-10-03T17:47:33.899Z,0.38
2023-10-03T17:50:05.433Z,0.77
2023-10-03T17:52:37.185Z,1.85
2023-10-03T17:55:08.704Z,0.73
2023-10-03T17:57:40.638Z,0.35
2023-10-03T18:00:12.261Z,1.65
2023-10-03T18:02:44.408Z,3.85
2023-10-03T18:05:16.003Z,1.07
2023-10-03T18:07:47.831Z,1.02
2023-10-03T18:10:19.343Z,2.65
2023-10-03T18:12:51.247Z,0.75
2023-10-03T18:15:22.866Z,2.17
2023-10-03T18:17:54.776Z,0.28
2023-10-03T18:20:26.422Z,2.00
2023-10-03T18:22:58.397Z,0.30
2023-10-03T18:25:29.903Z,0.38
2023-10-03T18:28:01.661Z,1.55
2023-10-03T18:30:33.220Z,0.52
2023-10-03T18:33:05.247Z,0.73
2023-10-03T18:35:36.790Z,0.20
2023-10-03T18:38:08.586Z,0.32
2023-10-03T18:40:40.086Z,0.52
2023-10-03T18:43:12.057Z,1.13
2023-10-03T18:45:55.423Z,7.07
2023-10-03T18:48:29.504Z,0.30
2023-10-03T18:51:01.127Z,0.77
2023-10-03T18:53:32.982Z,1.10
2023-10-03T18:56:04.491Z,0.43
2023-10-03T18:58:36.234Z,0.52
2023-10-03T19:01:07.791Z,1.65
2023-10-03T19:03:39.855Z,3.53
2023-10-03T19:06:11.614Z,3.05
2023-10-03T19:08:43.479Z,1.73
2023-10-03T19:11:15.013Z,0.35
2023-10-03T19:13:46.794Z,0.20
2023-10-03T19:16:18.359Z,1.13
2023-10-03T19:18:50.247Z,0.20
2023-10-03T19:21:21.776Z,5.25
2023-10-03T19:23:53.734Z,1.08
2023-10-03T19:26:25.257Z,0.57
2023-10-03T19:28:57.204Z,4.50
2023-10-03T19:31:28.725Z,0.25
2023-10-03T19:34:00.554Z,0.95
2023-10-03T19:36:32.485Z,0.88
2023-10-03T19:39:04.214Z,0.20
2023-10-03T19:41:35.907Z,0.70
2023-10-03T19:44:07.400Z,1.33
2023-10-03T19:46:39.187Z,0.80
2023-10-03T19:49:11.054Z,3.22
2023-10-03T19:51:42.886Z,1.50
2023-10-03T19:54:14.870Z,1.83
2023-10-03T19:56:46.425Z,0.30
2023-10-03T19:59:18.066Z,0.35
2023-10-03T20:01:49.743Z,1.30
2023-10-03T20:04:21.792Z,7.32
2023-10-03T20:06:53.288Z,0.37
2023-10-03T20:09:25.185Z,1.30
2023-10-03T20:11:56.829Z,0.63
2023-10-03T20:14:28.884Z,0.75
2023-10-03T20:17:00.394Z,1.77
2023-10-03T20:19:31.899Z,5.28
2023-10-03T20:22:03.789Z,0.65
2023-10-03T20:24:35.295Z,1.75
2023-10-03T20:27:07.295Z,6.75
2023-10-03T20:29:38.806Z,1.00
2023-10-03T20:32:10.692Z,0.80
2023-10-03T20:34:42.200Z,1.08
2023-10-03T20:37:14.064Z,1.17
2023-10-03T20:39:45.584Z,0.88
2023-10-03T20:42:17.436Z,4.95
2023-10-03T20:44:48.958Z,2.05
2023-10-03T20:47:20.869Z,1.98
2023-10-03T20:49:52.353Z,0.30
2023-10-03T20:52:24.189Z,0.70
2023-10-03T20:54:56.260Z,2.83
2023-10-03T20:57:27.846Z,0.87
2023-10-03T20:59:59.694Z,0.82
2023-10-03T21:02:31.251Z,3.10
2023-10-03T21:05:03.082Z,3.03
2023-10-03T21:07:34.610Z,2.25
2023-10-03T21:10:06.320Z,4.07
2023-10-03T21:12:37.835Z,7.97
2023-10-03T21:15:09.405Z,1.45
2023-10-03T21:17:40.978Z,0.98
2023-10-03T21:20:12.855Z,1.33
2023-10-03T21:22:44.560Z,4.15
2023-10-03T21:25:16.324Z,2.20
2023-10-03T21:27:47.871Z,2.08
2023-10-03T21:30:19.419Z,0.65
2023-10-03T21:32:51.114Z,3.75
2023-10-03T21:35:22.660Z,0.95
2023-10-03T21:37:54.647Z,1.02
2023-10-03T21:40:26.152Z,1.45
2023-10-03T21:42:58.065Z,0.73
2023-10-03T21:45:29.668Z,0.98
2023-10-03T21:48:01.798Z,3.40
2023-10-03T21:50:33.354Z,1.37
2023-10-03T21:53:05.184Z,1.17
2023-10-03T21:55:37.090Z,1.60
2023-10-03T21:58:08.599Z,0.55
2023-10-03T22:00:40.675Z,0.80
2023-10-03T22:03:12.276Z,1.70
2023-10-03T22:05:44.331Z,1.85
2023-10-03T22:08:16.032Z,3.77
2023-10-03T22:10:47.548Z,4.97
2023-10-03T22:13:19.071Z,2.00
2023-10-03T22:15:50.888Z,1.55
2023-10-03T22:18:22.478Z,0.98
2023-10-03T22:20:54.534Z,1.25
2023-10-03T22:23:26.476Z,3.30
2023-10-03T22:25:57.990Z,0.52
2023-10-03T22:28:29.857Z,5.68
2023-10-03T22:31:01.379Z,4.03
2023-10-03T22:33:33.078Z,3.00
2023-10-03T22:36:04.628Z,1.30
2023-10-03T22:38:36.158Z,7.95
2023-10-03T22:41:07.646Z,1.55
2023-10-03T22:43:39.557Z,5.95
2023-10-03T22:46:11.077Z,0.60
2023-10-03T22:48:42.935Z,6.70
2023-10-03T22:51:14.465Z,1.02
2023-10-03T22:53:46.035Z,1.52
2023-10-03T22:56:17.875Z,2.03
2023-10-03T22:58:49.372Z,0.75
2023-10-03T23:01:21.219Z,0.45
2023-10-03T23:03:52.797Z,1.95
2023-10-03T23:06:24.680Z,0.75
2023-10-03T23:08:56.281Z,0.40
2023-10-03T23:11:28.014Z,0.90
2023-10-03T23:13:59.510Z,3.33
2023-10-03T23:16:31.425Z,1.00
2023-10-03T23:19:03.784Z,4.45
2023-10-03T23:21:36.020Z,0.68
2023-10-03T23:24:07.860Z,1.20
2023-10-03T23:26:39.393Z,1.58
2023-10-03T23:29:11.235Z,1.95
2023-10-03T23:31:42.820Z,6.35
2023-10-03T23:34:14.696Z,0.50
2023-10-03T23:36:46.202Z,0.98
2023-10-03T23:39:17.964Z,1.25
2023-10-03T23:41:49.475Z,3.03
2023-10-03T23:44:21.327Z,11.02
2023-10-03T23:46:52.881Z,19.58
2023-10-03T23:49:24.704Z,12.63
2023-10-03T23:51:56.706Z,2.42
2023-10-03T23:54:28.236Z,0.80
2023-10-03T23:57:00.112Z,0.80
2023-10-03T23:59:31.638Z,2.38
